Time;durP1;ratioP1;P1;durP2;ratioP2;P2;SDS_P1;SDS_P2;PMS_P1;PMS_P2;Temp;Humidity;BMP_temperature;BMP_pressure;BME280_temperature;BME280_humidity;BME280_pressure;Samples;Min_cycle;Max_cycle;Signal;HPM_P1;HPM_P2
2020/12/31 00:00:30;;;;;;;17.52;9.15;;;4.60;99.90;;;;;;5056363;28;20896;-62
2020/12/31 00:02:56;;;;;;;21.98;9.63;;;4.50;99.90;;;;;;5056846;28;20039;-63
2020/12/31 00:05:21;;;;;;;17.95;9.55;;;4.50;99.90;;;;;;5059908;28;20031;-58
2020/12/31 00:07:47;;;;;;;13.88;7.82;;;4.50;99.90;;;;;;5058492;28;20479;-60
2020/12/31 00:10:12;;;;;;;16.77;8.30;;;4.50;99.90;;;;;;5061490;28;20044;-61
2020/12/31 00:12:38;;;;;;;14.25;8.27;;;4.50;99.90;;;;;;5058838;28;20036;-61
2020/12/31 00:15:05;;;;;;;16.80;9.25;;;4.50;99.90;;;;;;5058647;28;20806;-61
2020/12/31 00:17:31;;;;;;;18.45;9.20;;;4.50;99.90;;;;;;5057730;28;20397;-61
2020/12/31 00:19:56;;;;;;;17.90;8.40;;;4.50;99.90;;;;;;5056028;28;20048;-59
2020/12/31 00:22:22;;;;;;;18.35;9.38;;;4.50;99.90;;;;;;5057121;28;20040;-62
2020/12/31 00:24:47;;;;;;;17.02;8.55;;;4.50;99.90;;;;;;5057474;28;20017;-60
2020/12/31 00:27:13;;;;;;;18.13;9.48;;;4.50;99.90;;;;;;5058807;28;20036;-60
2020/12/31 00:29:38;;;;;;;17.95;9.93;;;4.50;99.90;;;;;;5057677;28;20028;-59
2020/12/31 00:32:04;;;;;;;16.30;9.38;;;4.50;99.90;;;;;;5057183;28;20040;-60
2020/12/31 00:34:30;;;;;;;16.15;9.45;;;4.40;99.90;;;;;;5054619;28;20021;-58
2020/12/31 00:36:55;;;;;;;15.43;9.07;;;4.40;99.90;;;;;;5057328;28;20012;-58
2020/12/31 00:39:21;;;;;;;15.20;9.32;;;4.40;99.90;;;;;;5059749;28;20056;-59
2020/12/31 00:41:47;;;;;;;15.93;9.55;;;4.40;99.90;;;;;;5058516;28;20024;-62
2020/12/31 00:44:12;;;;;;;15.13;8.40;;;4.40;99.90;;;;;;5053081;28;20037;-60
2020/12/31 00:46:38;;;;;;;16.08;9.65;;;4.40;99.90;;;;;;5052600;28;20051;-61
2020/12/31 00:49:04;;;;;;;15.25;9.70;;;4.50;99.90;;;;;;5051763;28;20487;-59
2020/12/31 00:51:29;;;;;;;15.23;8.98;;;4.50;99.90;;;;;;5069490;28;20025;-59
2020/12/31 00:53:55;;;;;;;15.90;9.82;;;4.50;99.90;;;;;;5050930;28;20056;-61
2020/12/31 00:56:20;;;;;;;21.00;11.05;;;4.50;99.90;;;;;;5049042;28;20040;-59
2020/12/31 00:58:46;;;;;;;15.75;10.73;;;4.50;99.90;;;;;;5048872;28;20400;-60
2020/12/31 01:01:12;;;;;;;17.65;9.60;;;4.50;99.90;;;;;;5053793;28;20400;-61
2020/12/31 01:03:37;;;;;;;15.43;9.50;;;4.50;99.90;;;;;;5070314;28;20117;-62
2020/12/31 01:06:03;;;;;;;15.02;10.15;;;4.50;99.90;;;;;;5058772;28;20017;-57
2020/12/31 01:08:28;;;;;;;18.65;10.57;;;4.60;99.90;;;;;;5062458;28;20173;-58
2020/12/31 01:10:54;;;;;;;17.98;9.82;;;4.50;99.90;;;;;;5068354;28;20047;-59
2020/12/31 01:13:19;;;;;;;15.57;10.02;;;4.50;99.90;;;;;;5061080;28;20033;-60
2020/12/31 01:15:45;;;;;;;15.57;9.25;;;4.50;99.90;;;;;;5049806;28;20024;-59
2020/12/31 01:18:10;;;;;;;13.40;9.15;;;4.50;99.90;;;;;;5064162;28;20025;-60
2020/12/31 01:20:38;;;;;;;17.90;9.68;;;4.50;99.90;;;;;;5065418;28;20053;-59
2020/12/31 01:23:08;;;;;;;15.25;8.63;;;4.50;99.90;;;;;;5050678;28;20037;-60
2020/12/31 01:25:34;;;;;;;15.73;8.60;;;4.60;99.90;;;;;;5052927;28;20029;-57
2020/12/31 01:28:00;;;;;;;16.63;9.23;;;4.60;99.90;;;;;;5053805;28;20117;-59
2020/12/31 01:30:26;;;;;;;15.05;9.73;;;4.60;99.90;;;;;;5052190;28;20028;-60
2020/12/31 01:32:53;;;;;;;14.90;8.57;;;4.60;99.90;;;;;;5063199;28;20028;-62
2020/12/31 01:35:20;;;;;;;13.45;8.55;;;4.60;99.90;;;;;;5064207;28;20060;-59
2020/12/31 01:37:45;;;;;;;16.85;8.88;;;4.60;99.90;;;;;;5055427;28;20033;-59
2020/12/31 01:40:11;;;;;;;14.20;8.63;;;4.60;99.90;;;;;;5051919;28;20112;-60
2020/12/31 01:42:39;;;;;;;14.63;9.27;;;4.60;99.90;;;;;;5064012;28;20045;-58
2020/12/31 01:45:06;;;;;;;18.50;8.25;;;4.60;99.90;;;;;;5068461;28;20025;-57
2020/12/31 01:47:31;;;;;;;13.85;8.82;;;4.60;99.90;;;;;;5061068;28;20541;-60
2020/12/31 01:49:57;;;;;;;17.58;9.15;;;4.60;99.90;;;;;;5088306;28;20032;-59
2020/12/31 01:52:23;;;;;;;12.73;8.15;;;4.60;99.90;;;;;;5088788;28;20081;-62
2020/12/31 01:54:49;;;;;;;14.35;8.73;;;4.70;99.90;;;;;;5059596;28;20033;-60
2020/12/31 01:57:15;;;;;;;12.18;8.45;;;4.70;99.90;;;;;;5051995;28;20057;-58
2020/12/31 01:59:41;;;;;;;13.23;8.23;;;4.70;99.90;;;;;;5051924;28;20036;-59
2020/12/31 02:02:08;;;;;;;14.70;8.20;;;4.70;99.90;;;;;;5065255;28;20440;-60
2020/12/31 02:04:35;;;;;;;13.57;8.30;;;4.70;99.90;;;;;;5071988;28;20024;-58
2020/12/31 02:07:01;;;;;;;12.68;7.80;;;4.80;99.90;;;;;;5076546;28;20032;-58
2020/12/31 02:09:27;;;;;;;14.05;8.38;;;4.80;99.90;;;;;;5061440;28;20059;-59
2020/12/31 02:11:52;;;;;;;12.65;7.85;;;4.80;99.90;;;;;;5061962;28;20031;-62
2020/12/31 02:14:18;;;;;;;14.10;8.60;;;4.80;99.90;;;;;;5066555;28;20512;-59
2020/12/31 02:16:43;;;;;;;15.88;8.05;;;4.80;99.90;;;;;;5063829;28;20089;-60
2020/12/31 02:19:13;;;;;;;15.50;9.77;;;4.70;99.90;;;;;;5063867;28;20433;-59
2020/12/31 02:21:49;;;;;;;15.75;9.00;;;4.80;99.90;;;;;;5064218;28;20103;-59
2020/12/31 02:24:15;;;;;;;16.08;9.68;;;4.80;99.90;;;;;;5069248;28;20028;-61
2020/12/31 02:26:43;;;;;;;16.38;9.98;;;4.70;99.90;;;;;;5055675;28;20480;-59
2020/12/31 02:29:10;;;;;;;21.88;9.57;;;4.70;99.90;;;;;;5056354;28;20032;-58
2020/12/31 02:31:37;;;;;;;16.70;10.20;;;4.60;99.90;;;;;;5061800;28;20033;-58
2020/12/31 02:34:03;;;;;;;14.25;9.20;;;4.70;99.90;;;;;;5063073;28;20028;-56
2020/12/31 02:36:30;;;;;;;20.80;10.07;;;4.70;99.90;;;;;;5069807;28;20024;-59
2020/12/31 02:38:58;;;;;;;17.02;8.70;;;4.60;99.90;;;;;;5070175;28;20052;-60
2020/12/31 02:41:24;;;;;;;17.13;9.57;;;4.60;99.90;;;;;;5069251;28;20037;-61
2020/12/31 02:43:50;;;;;;;14.88;9.80;;;4.50;99.90;;;;;;5055409;28;20028;-61
2020/12/31 02:46:20;;;;;;;18.10;9.40;;;4.50;99.90;;;;;;5054880;28;20033;-59
2020/12/31 02:48:46;;;;;;;16.98;9.98;;;4.50;99.90;;;;;;5058227;28;20044;-62
2020/12/31 02:51:12;;;;;;;17.73;10.48;;;4.40;99.90;;;;;;5061892;28;20043;-59
2020/12/31 02:53:38;;;;;;;18.10;10.48;;;4.40;99.90;;;;;;5051004;28;20025;-60
2020/12/31 02:56:17;;;;;;;18.23;10.65;;;4.30;99.90;;;;;;5053694;28;20547;-59
2020/12/31 02:58:43;;;;;;;18.42;10.23;;;4.30;99.90;;;;;;5053243;28;20097;-58
2020/12/31 03:01:10;;;;;;;19.40;10.18;;;4.30;99.90;;;;;;5051702;28;20041;-58
2020/12/31 03:03:36;;;;;;;17.80;10.90;;;4.30;99.90;;;;;;5058973;28;20095;-59
2020/12/31 03:06:02;;;;;;;19.67;10.25;;;4.30;99.90;;;;;;5062928;28;20906;-61
2020/12/31 03:08:28;;;;;;;15.52;10.00;;;4.30;99.90;;;;;;5065093;28;20476;-59
2020/12/31 03:10:54;;;;;;;15.50;9.85;;;4.30;99.90;;;;;;5070065;28;20035;-61
2020/12/31 03:13:23;;;;;;;15.95;9.98;;;4.40;99.90;;;;;;5060340;28;20819;-59
2020/12/31 03:15:52;;;;;;;16.73;9.70;;;4.40;99.90;;;;;;5066831;28;20029;-59
2020/12/31 03:18:18;;;;;;;17.10;10.27;;;4.40;99.90;;;;;;5053347;28;20029;-59
2020/12/31 03:20:44;;;;;;;15.52;9.73;;;4.40;99.90;;;;;;5052415;28;20044;-56
2020/12/31 03:23:14;;;;;;;19.85;9.93;;;4.40;99.90;;;;;;5059521;28;20029;-63
2020/12/31 03:25:40;;;;;;;22.58;10.35;;;4.40;99.90;;;;;;5055110;28;20051;-59
2020/12/31 03:28:06;;;;;;;17.90;9.98;;;4.40;99.90;;;;;;5053782;28;20016;-61
2020/12/31 03:30:33;;;;;;;17.35;11.18;;;4.30;99.90;;;;;;5051672;28;20090;-63
2020/12/31 03:32:59;;;;;;;20.98;10.52;;;4.30;99.90;;;;;;5062946;28;20028;-61
2020/12/31 03:35:25;;;;;;;16.63;10.38;;;4.30;99.90;;;;;;5068913;28;20037;-61
2020/12/31 03:37:50;;;;;;;18.92;10.35;;;4.30;99.90;;;;;;5068057;28;20039;-59
2020/12/31 03:40:16;;;;;;;21.30;10.82;;;4.30;99.90;;;;;;5054230;28;20033;-58
2020/12/31 03:42:41;;;;;;;22.58;10.30;;;4.40;99.90;;;;;;5051279;28;20033;-59
2020/12/31 03:45:07;;;;;;;17.77;10.00;;;4.40;99.90;;;;;;5055103;28;20013;-61
2020/12/31 03:47:33;;;;;;;14.80;9.45;;;4.30;99.90;;;;;;5058413;28;20060;-60
2020/12/31 03:49:58;;;;;;;18.55;10.48;;;4.30;99.90;;;;;;5067490;28;20178;-59
2020/12/31 03:52:24;;;;;;;14.77;8.65;;;4.20;99.90;;;;;;5062766;28;20036;-60
2020/12/31 03:54:49;;;;;;;14.90;9.38;;;4.30;99.90;;;;;;5049398;28;20032;-62
2020/12/31 03:57:15;;;;;;;18.20;9.75;;;4.30;99.90;;;;;;5061092;28;20036;-59
2020/12/31 03:59:40;;;;;;;17.85;10.35;;;4.30;99.90;;;;;;5064611;28;20028;-61
2020/12/31 04:02:06;;;;;;;20.23;10.57;;;4.30;99.90;;;;;;5061446;28;20093;-57
2020/12/31 04:04:31;;;;;;;15.50;9.95;;;4.30;99.90;;;;;;5063554;28;20035;-57
2020/12/31 04:06:57;;;;;;;17.08;9.68;;;4.30;99.90;;;;;;5069038;28;20025;-61
2020/12/31 04:09:22;;;;;;;17.92;9.07;;;4.30;99.90;;;;;;5050621;28;20032;-58
2020/12/31 04:11:48;;;;;;;14.35;9.13;;;4.30;99.90;;;;;;5054383;28;20029;-61
2020/12/31 04:14:13;;;;;;;19.23;9.98;;;4.40;99.90;;;;;;5057309;28;20032;-59
2020/12/31 04:16:39;;;;;;;17.77;10.38;;;4.40;99.90;;;;;;5049287;28;20373;-59
2020/12/31 04:19:04;;;;;;;16.80;9.35;;;4.40;99.90;;;;;;5063855;28;20112;-58
2020/12/31 04:21:30;;;;;;;15.27;9.57;;;4.40;99.90;;;;;;5063530;28;20074;-57
2020/12/31 04:23:55;;;;;;;15.50;8.80;;;4.30;99.90;;;;;;5065317;28;20024;-59
2020/12/31 04:26:21;;;;;;;19.05;8.85;;;4.30;99.90;;;;;;5065914;28;20021;-60
2020/12/31 04:28:46;;;;;;;16.70;9.13;;;4.30;99.90;;;;;;5054814;28;20044;-60
2020/12/31 04:31:12;;;;;;;18.67;8.80;;;4.30;99.90;;;;;;5054629;28;20029;-58
2020/12/31 04:33:37;;;;;;;14.98;8.13;;;4.30;99.90;;;;;;5053266;28;20502;-59
2020/12/31 04:36:03;;;;;;;14.55;8.48;;;4.30;99.90;;;;;;5059288;28;20032;-59
2020/12/31 04:38:29;;;;;;;12.25;7.60;;;4.30;99.90;;;;;;5053667;28;20463;-60
2020/12/31 04:40:54;;;;;;;12.43;7.30;;;4.30;99.90;;;;;;5058845;28;20052;-60
2020/12/31 04:43:21;;;;;;;10.68;6.80;;;4.40;99.90;;;;;;5057041;28;20032;-58
2020/12/31 04:45:47;;;;;;;13.65;7.55;;;4.40;99.90;;;;;;5048524;28;20052;-56
2020/12/31 04:48:25;;;;;;;14.07;7.35;;;4.40;99.90;;;;;;5054470;28;20496;-59
2020/12/31 04:50:57;;;;;;;9.98;5.95;;;4.40;99.90;;;;;;5048907;28;20029;-60
2020/12/31 04:53:23;;;;;;;9.85;5.55;;;4.30;99.90;;;;;;5049838;28;20032;-57
2020/12/31 04:55:48;;;;;;;8.60;5.47;;;4.30;99.90;;;;;;5049757;28;20400;-56
2020/12/31 04:58:15;;;;;;;10.57;6.20;;;4.30;99.90;;;;;;5066219;28;20044;-62
2020/12/31 05:00:42;;;;;;;7.95;5.03;;;4.30;99.90;;;;;;5052668;28;20388;-60
2020/12/31 05:03:08;;;;;;;9.57;6.13;;;4.30;99.90;;;;;;5050455;28;20048;-62
2020/12/31 05:05:36;;;;;;;7.82;5.60;;;4.30;99.90;;;;;;5059327;28;20037;-58
2020/12/31 05:08:03;;;;;;;7.07;4.43;;;4.30;99.90;;;;;;5055713;28;20021;-60
2020/12/31 05:10:29;;;;;;;6.20;4.55;;;4.30;99.90;;;;;;5053834;28;20029;-59
2020/12/31 05:12:59;;;;;;;10.23;5.15;;;4.30;99.90;;;;;;5056174;28;20520;-58
2020/12/31 05:15:44;;;;;;;16.90;5.05;;;4.20;99.90;;;;;;5064826;28;20103;-57
2020/12/31 05:18:27;;;;;;;8.90;4.97;;;4.30;99.90;;;;;;5054347;28;20075;-61
2020/12/31 05:20:57;;;;;;;7.30;4.82;;;4.30;99.90;;;;;;5065566;28;20114;-57
2020/12/31 05:23:24;;;;;;;6.60;4.68;;;4.30;99.90;;;;;;5064208;28;20033;-60
2020/12/31 05:25:51;;;;;;;6.28;4.22;;;4.30;99.90;;;;;;5064544;28;20066;-63
2020/12/31 05:28:42;;;;;;;6.25;4.05;;;4.20;99.90;;;;;;5060736;28;20056;-61
2020/12/31 05:31:11;;;;;;;9.23;4.50;;;4.20;99.90;;;;;;5048402;28;20021;-60
2020/12/31 05:33:39;;;;;;;11.40;4.40;;;4.20;99.90;;;;;;5048377;28;20039;-59
2020/12/31 05:36:17;;;;;;;5.35;4.00;;;4.20;99.90;;;;;;5048572;28;20403;-61
2020/12/31 05:39:06;;;;;;;5.75;3.97;;;4.20;99.90;;;;;;5064477;28;20044;-60
2020/12/31 05:41:34;;;;;;;5.40;3.70;;;4.20;99.90;;;;;;5065030;28;20510;-56
2020/12/31 05:44:05;;;;;;;4.93;3.70;;;4.10;99.90;;;;;;5056215;28;20040;-57
2020/12/31 05:46:31;;;;;;;6.93;4.30;;;4.10;99.90;;;;;;5060106;28;20032;-59
2020/12/31 05:48:58;;;;;;;4.38;3.47;;;4.10;99.90;;;;;;5051465;28;20559;-59
2020/12/31 05:51:28;;;;;;;5.63;3.78;;;4.10;99.90;;;;;;5049372;28;20109;-58
2020/12/31 05:54:06;;;;;;;3.95;2.78;;;4.10;99.90;;;;;;5053065;28;20128;-61
2020/12/31 05:56:33;;;;;;;4.53;3.67;;;4.10;99.90;;;;;;5050459;28;20028;-57
2020/12/31 05:59:06;;;;;;;7.35;3.97;;;4.10;99.90;;;;;;5055605;28;20112;-57
2020/12/31 06:01:35;;;;;;;6.05;3.40;;;4.10;99.90;;;;;;5058616;28;20036;-59
2020/12/31 06:04:19;;;;;;;4.35;3.13;;;4.20;99.90;;;;;;5051232;28;20056;-60
2020/12/31 06:06:57;;;;;;;4.75;3.15;;;4.10;99.90;;;;;;5058574;28;20017;-57
2020/12/31 06:09:33;;;;;;;3.42;2.70;;;4.10;99.90;;;;;;5048142;28;20423;-60
2020/12/31 06:12:05;;;;;;;6.00;3.17;;;4.10;99.90;;;;;;5057824;28;20025;-58
2020/12/31 06:14:32;;;;;;;4.63;2.78;;;4.10;99.90;;;;;;5058528;28;20188;-61
2020/12/31 06:17:01;;;;;;;6.07;3.22;;;4.10;99.90;;;;;;5065980;28;20880;-61
2020/12/31 06:19:26;;;;;;;5.57;3.55;;;4.10;99.90;;;;;;5069980;28;20116;-62
2020/12/31 06:21:59;;;;;;;4.55;3.75;;;4.10;99.90;;;;;;5052763;28;20612;-60
2020/12/31 06:24:37;;;;;;;5.60;3.85;;;4.10;99.90;;;;;;5057612;28;20033;-60
2020/12/31 06:27:07;;;;;;;4.63;3.45;;;4.10;99.90;;;;;;5052494;28;20032;-61
2020/12/31 06:29:48;;;;;;;5.50;3.78;;;4.10;99.90;;;;;;5051667;28;20028;-61
2020/12/31 06:32:27;;;;;;;5.93;3.90;;;4.00;99.90;;;;;;5053537;28;20017;-61
2020/12/31 06:35:09;;;;;;;6.97;4.93;;;4.00;99.90;;;;;;5069098;28;20077;-61
2020/12/31 06:37:36;;;;;;;10.60;5.57;;;4.00;99.90;;;;;;5064186;28;20128;-62
2020/12/31 06:40:22;;;;;;;10.52;6.78;;;4.00;99.90;;;;;;5054874;28;20021;-61
2020/12/31 06:43:04;;;;;;;12.40;6.47;;;4.00;99.90;;;;;;5051561;28;20098;-60
2020/12/31 06:45:40;;;;;;;9.93;6.63;;;3.90;99.90;;;;;;5053176;28;20590;-62
2020/12/31 06:48:28;;;;;;;12.50;7.22;;;3.90;99.90;;;;;;5054449;28;20087;-62
2020/12/31 06:50:57;;;;;;;14.98;7.82;;;3.90;99.90;;;;;;5059622;28;20029;-59
2020/12/31 06:53:52;;;;;;;14.32;8.50;;;3.90;99.90;;;;;;5069891;28;20086;-62
2020/12/31 06:56:44;;;;;;;14.32;8.73;;;3.80;99.90;;;;;;5068065;28;20040;-60
2020/12/31 06:59:23;;;;;;;14.05;8.07;;;3.80;99.90;;;;;;5060309;28;20139;-59
2020/12/31 07:01:48;;;;;;;18.15;8.57;;;3.80;99.90;;;;;;5057104;28;20025;-60
2020/12/31 07:04:33;;;;;;;15.27;9.00;;;3.80;99.90;;;;;;5058633;28;20043;-59
2020/12/31 07:07:00;;;;;;;12.38;8.18;;;3.80;99.90;;;;;;5057253;28;20028;-59
2020/12/31 07:09:36;;;;;;;13.63;8.45;;;3.80;99.90;;;;;;5064098;28;20017;-60
2020/12/31 07:12:06;;;;;;;12.48;7.35;;;3.80;99.90;;;;;;5052974;28;20021;-58
2020/12/31 07:14:34;;;;;;;10.93;7.18;;;3.80;99.90;;;;;;5052815;28;20025;-59
2020/12/31 07:17:05;;;;;;;12.65;7.38;;;3.70;99.90;;;;;;5057648;28;20625;-59
2020/12/31 07:19:42;;;;;;;10.02;6.82;;;3.70;99.90;;;;;;5051800;28;20461;-59
2020/12/31 07:22:14;;;;;;;11.18;7.28;;;3.70;99.90;;;;;;5065004;28;20035;-58
2020/12/31 07:24:53;;;;;;;9.82;6.65;;;3.60;99.90;;;;;;5065195;28;20396;-59
2020/12/31 07:27:19;;;;;;;10.93;6.93;;;3.60;99.90;;;;;;5055580;28;20044;-61
2020/12/31 07:29:56;;;;;;;9.82;7.18;;;3.60;99.90;;;;;;5067726;28;20063;-61
2020/12/31 07:33:00;;;;;;;10.50;7.22;;;3.60;99.90;;;;;;5065847;28;20025;-62
2020/12/31 07:35:28;;;;;;;12.50;7.72;;;3.60;99.90;;;;;;5050961;28;20530;-60
2020/12/31 07:38:15;;;;;;;13.35;7.72;;;3.60;99.90;;;;;;5051998;28;20055;-61
2020/12/31 07:40:51;;;;;;;13.68;8.25;;;3.50;99.90;;;;;;5068901;28;20465;-60
2020/12/31 07:43:21;;;;;;;12.50;8.75;;;3.60;99.90;;;;;;5054895;28;20115;-60
2020/12/31 07:46:02;;;;;;;14.40;9.63;;;3.60;99.90;;;;;;5050092;28;20074;-60
2020/12/31 07:48:29;;;;;;;16.40;9.48;;;3.60;99.90;;;;;;5051336;28;20040;-59
2020/12/31 07:50:58;;;;;;;12.90;8.75;;;3.70;99.90;;;;;;5064368;28;20060;-59
2020/12/31 07:53:24;;;;;;;14.27;9.40;;;3.60;99.90;;;;;;5052486;28;20032;-60
2020/12/31 07:55:51;;;;;;;18.65;10.45;;;3.70;99.90;;;;;;5066254;28;20021;-59
2020/12/31 07:58:19;;;;;;;17.48;10.90;;;3.60;99.90;;;;;;5064634;28;20108;-59
2020/12/31 08:00:45;;;;;;;19.70;11.27;;;3.60;99.90;;;;;;5063303;28;20020;-59
2020/12/31 08:03:11;;;;;;;19.30;11.00;;;3.70;99.90;;;;;;5059741;28;20033;-60
2020/12/31 08:05:37;;;;;;;19.17;10.45;;;3.60;99.90;;;;;;5057877;28;20081;-61
2020/12/31 08:08:03;;;;;;;18.15;11.70;;;3.60;99.90;;;;;;5061994;28;20430;-60
2020/12/31 08:10:33;;;;;;;20.13;11.60;;;3.60;99.90;;;;;;5056920;28;20036;-59
2020/12/31 08:13:04;;;;;;;18.67;11.18;;;3.60;99.90;;;;;;5050433;28;20116;-60
2020/12/31 08:15:33;;;;;;;20.25;11.60;;;3.60;99.90;;;;;;5067626;28;20044;-59
2020/12/31 08:18:03;;;;;;;20.58;12.32;;;3.60;99.90;;;;;;5058876;28;20044;-61
2020/12/31 08:20:36;;;;;;;23.40;12.75;;;3.60;99.90;;;;;;5051953;28;20032;-60
2020/12/31 08:23:04;;;;;;;21.40;13.73;;;3.60;99.90;;;;;;5061967;28;20033;-60
2020/12/31 08:25:37;;;;;;;24.02;14.10;;;3.50;99.90;;;;;;5059654;28;20058;-62
2020/12/31 08:28:05;;;;;;;24.83;13.23;;;3.60;99.90;;;;;;5059332;28;20533;-61
2020/12/31 08:30:33;;;;;;;26.20;13.70;;;3.70;99.90;;;;;;5067509;28;20104;-61
2020/12/31 08:32:59;;;;;;;22.98;12.80;;;3.70;99.90;;;;;;5051635;28;20119;-62
2020/12/31 08:35:31;;;;;;;22.83;13.00;;;3.70;99.90;;;;;;5063111;28;20464;-62
2020/12/31 08:38:05;;;;;;;24.55;12.98;;;3.70;99.90;;;;;;5053611;28;20051;-61
2020/12/31 08:40:32;;;;;;;20.42;12.48;;;3.60;99.90;;;;;;5064233;28;20028;-54
2020/12/31 08:42:58;;;;;;;23.27;12.82;;;3.60;99.90;;;;;;5052808;28;20033;-55
2020/12/31 08:45:32;;;;;;;21.73;12.35;;;3.70;99.90;;;;;;5060636;28;20024;-56
2020/12/31 08:48:23;;;;;;;22.83;13.10;;;3.70;99.90;;;;;;5065518;28;20372;-56
2020/12/31 08:50:59;;;;;;;21.95;12.88;;;3.70;99.90;;;;;;5065861;28;20081;-57
2020/12/31 08:53:25;;;;;;;16.58;10.60;;;3.70;99.90;;;;;;5060011;28;20119;-56
2020/12/31 08:55:51;;;;;;;19.45;11.82;;;3.80;99.90;;;;;;5054648;28;20086;-55
2020/12/31 08:58:17;;;;;;;22.30;12.02;;;3.80;99.90;;;;;;5064010;28;20040;-56
2020/12/31 09:00:44;;;;;;;19.65;12.93;;;3.80;99.90;;;;;;5056853;28;20028;-54
2020/12/31 09:03:11;;;;;;;19.90;11.02;;;3.80;99.90;;;;;;5059368;28;20032;-55
2020/12/31 09:05:37;;;;;;;20.73;12.85;;;3.80;99.90;;;;;;5056581;28;20017;-57
2020/12/31 09:08:07;;;;;;;20.83;11.50;;;3.80;99.90;;;;;;5055653;28;20036;-57
2020/12/31 09:10:36;;;;;;;19.60;10.70;;;3.80;99.90;;;;;;5062001;28;20031;-56
2020/12/31 09:13:05;;;;;;;19.15;11.73;;;3.90;99.90;;;;;;5052324;28;20867;-55
2020/12/31 09:15:31;;;;;;;19.83;12.23;;;3.90;99.90;;;;;;5057496;28;20040;-56
2020/12/31 09:17:57;;;;;;;20.15;11.48;;;3.90;99.90;;;;;;5070062;28;20462;-58
2020/12/31 09:20:24;;;;;;;17.20;11.40;;;3.90;99.90;;;;;;5080213;28;20079;-55
2020/12/31 09:22:51;;;;;;;16.00;10.88;;;3.90;99.90;;;;;;5052798;28;20125;-55
2020/12/31 09:25:17;;;;;;;17.52;10.98;;;3.90;99.90;;;;;;5060068;28;20033;-57
2020/12/31 09:27:46;;;;;;;17.15;9.93;;;3.90;99.90;;;;;;5061245;28;20029;-55
2020/12/31 09:30:15;;;;;;;14.88;9.55;;;4.00;99.90;;;;;;5058121;28;20033;-54
2020/12/31 09:32:45;;;;;;;16.67;9.45;;;4.00;99.90;;;;;;5060873;28;20093;-62
2020/12/31 09:35:11;;;;;;;12.60;9.15;;;4.00;99.90;;;;;;5046536;28;20045;-56
2020/12/31 09:37:59;;;;;;;13.45;8.85;;;3.90;99.90;;;;;;5049351;28;20047;-55
2020/12/31 09:40:25;;;;;;;14.68;8.60;;;3.90;99.90;;;;;;5057331;28;20036;-56
2020/12/31 09:42:52;;;;;;;14.48;8.73;;;3.90;99.90;;;;;;5046639;28;20051;-55
2020/12/31 09:45:18;;;;;;;15.15;9.20;;;3.90;99.90;;;;;;5045773;28;20112;-55
2020/12/31 09:47:44;;;;;;;15.95;8.35;;;4.00;99.90;;;;;;5061233;28;20039;-56
2020/12/31 09:50:10;;;;;;;15.20;8.50;;;3.90;99.90;;;;;;5065962;28;20024;-55
2020/12/31 09:52:40;;;;;;;13.93;8.10;;;3.90;99.90;;;;;;5058847;28;20039;-55
2020/12/31 09:55:09;;;;;;;15.73;8.88;;;3.90;99.90;;;;;;5052497;28;20107;-56
2020/12/31 09:57:35;;;;;;;11.23;7.85;;;3.80;99.90;;;;;;5072394;28;20039;-57
2020/12/31 10:00:03;;;;;;;13.25;7.93;;;3.80;99.90;;;;;;5066359;28;20028;-54
2020/12/31 10:02:28;;;;;;;15.65;8.25;;;3.70;99.90;;;;;;5053734;28;20029;-55
2020/12/31 10:04:54;;;;;;;12.98;7.80;;;3.70;99.90;;;;;;5054980;28;20056;-54
2020/12/31 10:07:19;;;;;;;13.23;7.75;;;3.80;99.90;;;;;;5051675;28;20106;-55
2020/12/31 10:09:45;;;;;;;11.13;7.38;;;3.80;99.90;;;;;;5047117;28;20040;-55
2020/12/31 10:12:14;;;;;;;12.85;7.28;;;3.80;99.90;;;;;;5048536;28;20035;-52
2020/12/31 10:14:41;;;;;;;10.38;7.22;;;3.80;99.90;;;;;;5055906;28;20041;-54
2020/12/31 10:17:07;;;;;;;13.38;6.68;;;3.70;99.90;;;;;;5052770;28;20028;-53
2020/12/31 10:19:34;;;;;;;12.38;6.70;;;3.70;99.90;;;;;;5052424;28;20028;-52
2020/12/31 10:21:59;;;;;;;13.30;6.85;;;3.60;99.90;;;;;;5061838;28;20086;-53
2020/12/31 10:24:25;;;;;;;10.60;7.63;;;3.60;99.90;;;;;;5060031;28;20380;-52
2020/12/31 10:26:51;;;;;;;10.43;6.60;;;3.50;99.90;;;;;;5060687;28;20041;-53
2020/12/31 10:29:17;;;;;;;8.57;5.65;;;3.50;99.90;;;;;;5065435;28;20218;-52
2020/12/31 10:31:43;;;;;;;11.93;6.20;;;3.50;99.90;;;;;;5067193;28;20555;-55
2020/12/31 10:34:10;;;;;;;11.32;6.40;;;3.40;99.90;;;;;;5057356;28;20484;-54
2020/12/31 10:36:35;;;;;;;8.98;6.13;;;3.30;99.90;;;;;;5062716;28;20036;-53
2020/12/31 10:39:02;;;;;;;10.20;6.05;;;3.20;99.90;;;;;;5052774;28;20021;-53
2020/12/31 10:41:29;;;;;;;9.45;6.45;;;3.10;99.90;;;;;;5048588;28;20422;-55
2020/12/31 10:43:56;;;;;;;9.60;6.35;;;3.00;99.90;;;;;;5050931;28;20439;-55
2020/12/31 10:46:25;;;;;;;10.98;6.63;;;3.00;99.90;;;;;;5042276;28;20025;-51
2020/12/31 10:48:51;;;;;;;11.43;5.60;;;3.00;99.90;;;;;;5059024;28;20012;-54
2020/12/31 10:51:17;;;;;;;10.25;6.53;;;2.80;99.90;;;;;;5053702;28;20388;-54
2020/12/31 10:53:43;;;;;;;14.77;7.35;;;2.80;99.90;;;;;;5059074;28;20487;-53
2020/12/31 10:56:09;;;;;;;15.05;8.77;;;2.90;99.90;;;;;;5057681;28;20037;-55
2020/12/31 10:58:36;;;;;;;18.05;9.57;;;2.90;99.90;;;;;;5052611;28;20087;-56
2020/12/31 11:01:03;;;;;;;17.65;9.82;;;3.00;99.90;;;;;;5048741;28;20122;-52
2020/12/31 11:03:28;;;;;;;16.77;9.05;;;3.00;99.90;;;;;;5052021;28;20767;-56
2020/12/31 11:05:54;;;;;;;13.70;8.85;;;3.10;99.90;;;;;;5066743;28;20032;-54
2020/12/31 11:08:20;;;;;;;17.00;9.20;;;3.10;99.90;;;;;;5050399;28;20036;-55
2020/12/31 11:10:47;;;;;;;16.15;9.60;;;3.10;99.90;;;;;;5048931;28;20039;-53
2020/12/31 11:13:13;;;;;;;17.77;8.75;;;3.20;99.90;;;;;;5058006;28;20422;-56
2020/12/31 11:15:39;;;;;;;17.85;10.27;;;3.30;99.90;;;;;;5065123;28;20023;-54
2020/12/31 11:18:05;;;;;;;15.13;9.48;;;3.30;99.90;;;;;;5054008;28;20038;-54
2020/12/31 11:20:30;;;;;;;16.25;9.38;;;3.40;99.90;;;;;;5053951;28;20885;-54
2020/12/31 11:22:56;;;;;;;17.08;10.02;;;3.40;99.90;;;;;;5053982;28;20473;-52
2020/12/31 11:25:21;;;;;;;14.18;9.20;;;3.40;99.90;;;;;;5049996;28;20056;-54
2020/12/31 11:27:47;;;;;;;18.20;9.20;;;3.50;99.90;;;;;;5054761;28;20083;-53
2020/12/31 11:30:12;;;;;;;15.40;9.35;;;3.50;99.90;;;;;;5055701;28;20029;-54
2020/12/31 11:32:38;;;;;;;15.50;9.80;;;3.50;99.90;;;;;;5051786;28;20024;-52
2020/12/31 11:35:04;;;;;;;16.73;10.45;;;3.60;99.90;;;;;;5047573;28;20056;-55
2020/12/31 11:37:32;;;;;;;15.40;8.43;;;3.70;99.90;;;;;;5049400;28;20029;-54
2020/12/31 11:39:57;;;;;;;13.43;8.02;;;3.80;99.90;;;;;;5059270;28;20037;-54
2020/12/31 11:42:23;;;;;;;13.60;8.52;;;3.80;99.90;;;;;;5060108;28;20025;-53
2020/12/31 11:44:48;;;;;;;15.00;9.18;;;3.90;99.90;;;;;;5055884;28;20028;-55
2020/12/31 11:47:14;;;;;;;14.80;8.02;;;3.80;99.90;;;;;;5051360;28;20024;-56
2020/12/31 11:49:39;;;;;;;12.88;7.85;;;3.90;99.90;;;;;;5062276;28;20639;-55
2020/12/31 11:52:05;;;;;;;14.02;8.90;;;3.90;99.90;;;;;;5061115;28;20054;-54
2020/12/31 11:54:31;;;;;;;15.23;8.80;;;4.00;99.90;;;;;;5052022;28;20886;-53
2020/12/31 11:56:56;;;;;;;14.57;9.25;;;3.90;99.90;;;;;;5054606;28;20033;-53
2020/12/31 11:59:22;;;;;;;17.50;10.15;;;3.90;99.90;;;;;;5055261;28;20101;-55
2020/12/31 12:01:50;;;;;;;18.15;11.20;;;4.00;99.90;;;;;;5060031;28;20032;-53
2020/12/31 12:04:20;;;;;;;18.08;8.70;;;4.00;99.90;;;;;;5049664;28;20139;-53
2020/12/31 12:06:52;;;;;;;22.88;12.55;;;4.00;99.90;;;;;;5056524;28;20090;-53
2020/12/31 12:09:19;;;;;;;13.38;8.60;;;4.00;99.90;;;;;;5047260;28;20049;-54
2020/12/31 12:11:45;;;;;;;11.52;7.45;;;4.00;99.90;;;;;;5061154;28;20102;-53
2020/12/31 12:14:11;;;;;;;11.38;7.57;;;4.00;99.90;;;;;;5047372;28;20098;-54
2020/12/31 12:16:38;;;;;;;12.40;7.53;;;4.00;99.90;;;;;;5061102;28;20543;-53
2020/12/31 12:19:03;;;;;;;10.15;6.88;;;4.00;99.90;;;;;;5053151;28;20059;-52
2020/12/31 12:21:29;;;;;;;12.70;7.18;;;4.10;99.90;;;;;;5058366;28;20048;-53
2020/12/31 12:23:54;;;;;;;10.25;6.78;;;4.10;99.90;;;;;;5057581;28;20460;-56
2020/12/31 12:26:20;;;;;;;10.00;7.00;;;4.10;99.90;;;;;;5064940;28;20052;-54
2020/12/31 12:28:45;;;;;;;15.48;7.35;;;4.00;99.90;;;;;;5060615;28;20025;-54
2020/12/31 12:31:11;;;;;;;13.27;7.25;;;4.00;99.90;;;;;;5064813;28;20031;-52
2020/12/31 12:33:36;;;;;;;11.02;6.80;;;3.90;99.90;;;;;;5062055;28;20029;-55
2020/12/31 12:36:03;;;;;;;9.75;7.15;;;4.00;99.90;;;;;;5054049;28;20469;-55
2020/12/31 12:38:28;;;;;;;11.48;6.95;;;4.10;99.90;;;;;;5055832;28;20090;-54
2020/12/31 12:40:54;;;;;;;11.57;6.20;;;4.10;99.90;;;;;;5054583;28;20032;-53
2020/12/31 12:43:20;;;;;;;11.07;6.40;;;4.10;99.90;;;;;;5053179;28;20537;-52
2020/12/31 12:45:45;;;;;;;8.88;5.45;;;4.10;99.90;;;;;;5048702;28;20029;-55
2020/12/31 12:48:11;;;;;;;9.63;5.55;;;4.10;99.90;;;;;;5048098;28;20037;-54
2020/12/31 12:50:36;;;;;;;10.05;6.20;;;4.20;99.90;;;;;;5052052;28;20570;-56